createdAt,value
2023-03-05T00:01:09.317Z,2.90
2023-03-05T00:03:36.744Z,2.80
2023-03-05T00:06:04.037Z,2.80
2023-03-05T00:08:31.242Z,2.80
2023-03-05T00:11:04.092Z,2.80
2023-03-05T00:13:31.044Z,2.90
2023-03-05T00:15:57.970Z,2.80
2023-03-05T00:18:25.156Z,2.90
2023-03-05T00:20:51.759Z,2.90
2023-03-05T00:23:18.395Z,2.80
2023-03-05T00:25:46.504Z,2.80
2023-03-05T00:28:13.645Z,2.80
2023-03-05T00:30:40.540Z,2.90
2023-03-05T00:33:08.243Z,2.90
2023-03-05T00:35:46.141Z,2.90
2023-03-05T00:38:13.758Z,2.90
2023-03-05T00:40:41.776Z,2.90
2023-03-05T00:43:09.069Z,2.90
2023-03-05T00:45:35.861Z,2.90
2023-03-05T00:48:02.930Z,2.90
2023-03-05T00:50:29.541Z,2.90
2023-03-05T00:52:56.313Z,2.90
2023-03-05T00:55:22.931Z,2.90
2023-03-05T00:57:49.554Z,2.80
2023-03-05T01:00:17.234Z,2.90
2023-03-05T01:02:43.941Z,2.80
2023-03-05T01:05:12.776Z,2.90
2023-03-05T01:07:39.968Z,2.80
2023-03-05T01:10:08.026Z,2.90
2023-03-05T01:12:34.672Z,2.90
2023-03-05T01:15:01.334Z,2.90
2023-03-05T01:17:27.968Z,2.90
2023-03-05T01:19:54.683Z,2.90
2023-03-05T01:22:21.293Z,2.90
2023-03-05T01:24:47.907Z,2.90
2023-03-05T01:27:14.511Z,2.90
2023-03-05T01:29:41.085Z,3.00
2023-03-05T01:32:07.670Z,2.90
2023-03-05T01:34:36.756Z,2.90
2023-03-05T01:37:03.412Z,2.90
2023-03-05T01:39:30.045Z,2.90
2023-03-05T01:41:56.609Z,2.90
2023-03-05T01:44:26.277Z,2.90
2023-03-05T01:46:53.187Z,2.90
2023-03-05T01:49:34.310Z,2.90
2023-03-05T01:52:09.689Z,2.90
2023-03-05T01:54:47.764Z,2.90
2023-03-05T01:57:19.971Z,2.90
2023-03-05T01:59:50.289Z,2.90
2023-03-05T02:02:18.429Z,2.90
2023-03-05T02:04:50.720Z,2.90
2023-03-05T02:07:18.344Z,2.90
2023-03-05T02:09:45.004Z,2.90
2023-03-05T02:12:13.203Z,2.90
2023-03-05T02:14:42.402Z,2.90
2023-03-05T02:17:10.680Z,2.90
2023-03-05T02:19:52.641Z,3.00
2023-03-05T02:22:22.038Z,2.90
2023-03-05T02:24:48.607Z,2.90
2023-03-05T02:27:16.148Z,3.00
2023-03-05T02:29:46.140Z,3.00
2023-03-05T02:32:13.721Z,3.00
2023-03-05T02:34:40.951Z,3.10
2023-03-05T02:37:09.216Z,3.10
2023-03-05T02:39:36.360Z,3.00
2023-03-05T02:42:03.367Z,3.10
2023-03-05T02:44:30.101Z,3.00
2023-03-05T02:46:56.828Z,3.00
2023-03-05T03:06:35.149Z,3.10
2023-03-05T03:09:01.734Z,3.10
2023-03-05T03:11:28.372Z,3.00
2023-03-05T03:13:54.942Z,3.00
2023-03-05T03:16:21.664Z,3.00
2023-03-05T03:18:48.797Z,2.90
2023-03-05T03:21:21.201Z,2.90
2023-03-05T03:23:47.897Z,2.90
2023-03-05T03:26:14.737Z,2.90
2023-03-05T03:28:41.346Z,2.90
2023-03-05T03:31:08.080Z,2.80
2023-03-05T03:33:34.729Z,2.90
2023-03-05T03:36:01.426Z,2.80
2023-03-05T03:38:28.171Z,2.90
2023-03-05T03:40:54.762Z,2.80
2023-03-05T03:43:21.380Z,2.80
2023-03-05T03:45:48.114Z,2.90
2023-03-05T03:48:14.780Z,2.90
2023-03-05T03:50:42.534Z,2.90
2023-03-05T03:53:14.104Z,2.80
2023-03-05T03:55:42.813Z,2.90
2023-03-05T03:58:10.099Z,2.80
2023-03-05T04:00:37.186Z,2.90
2023-03-05T04:03:03.849Z,2.90
2023-03-05T04:05:30.627Z,2.80
2023-03-05T04:07:58.542Z,2.80
2023-03-05T04:10:25.972Z,2.80
2023-03-05T04:12:52.856Z,2.80
2023-03-05T04:15:22.795Z,2.90
2023-03-05T04:17:49.443Z,2.90
2023-03-05T04:20:16.226Z,2.90
2023-03-05T04:22:42.926Z,2.90
2023-03-05T04:25:09.917Z,2.90
2023-03-05T04:27:37.851Z,2.90
2023-03-05T04:30:05.238Z,2.90
2023-03-05T04:32:31.949Z,2.80
2023-03-05T04:34:59.187Z,2.80
2023-03-05T04:37:26.232Z,2.80
2023-03-05T04:39:53.396Z,2.80
2023-03-05T04:42:21.130Z,2.80
2023-03-05T04:44:48.962Z,2.80
2023-03-05T04:47:16.769Z,2.70
2023-03-05T04:49:43.620Z,2.80
2023-03-05T04:52:13.859Z,2.70
2023-03-05T04:54:40.488Z,2.70
2023-03-05T04:57:07.337Z,2.70
2023-03-05T04:59:33.952Z,2.80
2023-03-05T05:02:00.584Z,2.70
2023-03-05T05:04:27.205Z,2.70
2023-03-05T05:06:57.173Z,2.70
2023-03-05T05:09:24.792Z,2.70
2023-03-05T05:11:51.661Z,2.70
2023-03-05T05:14:18.967Z,2.70
2023-03-05T05:16:45.749Z,2.80
2023-03-05T05:19:12.525Z,2.70
2023-03-05T05:21:39.216Z,2.70
2023-03-05T05:24:06.318Z,2.70
2023-03-05T05:26:33.189Z,2.70
2023-03-05T05:28:59.814Z,2.80
2023-03-05T05:31:26.458Z,2.80
2023-03-05T05:33:53.084Z,2.80
2023-03-05T05:36:21.514Z,2.80
2023-03-05T05:38:48.533Z,2.70
2023-03-05T05:41:17.835Z,2.70
2023-03-05T05:43:44.588Z,2.70
2023-03-05T05:46:17.033Z,2.70
2023-03-05T05:48:44.905Z,2.70
2023-03-05T05:51:15.260Z,2.70
2023-03-05T05:53:43.077Z,2.70
2023-03-05T05:56:10.924Z,2.70
2023-03-05T05:58:38.900Z,2.70
2023-03-05T06:01:17.373Z,2.70
2023-03-05T06:03:44.261Z,2.70
2023-03-05T06:06:12.820Z,2.70
2023-03-05T06:08:39.872Z,2.60
2023-03-05T06:11:07.526Z,2.70
2023-03-05T06:13:34.944Z,2.70
2023-03-05T06:16:05.500Z,2.70
2023-03-05T06:18:33.191Z,2.70
2023-03-05T06:21:06.139Z,2.70
2023-03-05T06:23:33.328Z,2.70
2023-03-05T06:26:01.762Z,2.70
2023-03-05T06:28:29.729Z,2.70
2023-03-05T06:31:23.834Z,2.70
2023-03-05T06:33:50.621Z,2.80
2023-03-05T06:36:18.930Z,2.80
2023-03-05T06:38:46.949Z,2.80
2023-03-05T06:41:17.466Z,2.80
2023-03-05T06:43:45.747Z,2.90
2023-03-05T06:46:13.674Z,2.80
2023-03-05T06:48:41.359Z,2.80
2023-03-05T06:51:19.621Z,2.80
2023-03-05T06:53:49.474Z,2.90
2023-03-05T06:56:16.937Z,3.00
2023-03-05T06:58:45.901Z,2.90
2023-03-05T07:01:13.528Z,3.00
2023-03-05T07:03:41.021Z,3.00
2023-03-05T07:06:13.571Z,3.00
2023-03-05T07:08:40.319Z,3.00
2023-03-05T07:11:11.762Z,3.00
2023-03-05T07:13:38.548Z,3.00
2023-03-05T07:16:07.420Z,3.10
2023-03-05T07:18:34.436Z,3.10
2023-03-05T07:21:05.810Z,3.20
2023-03-05T07:23:33.768Z,3.20
2023-03-05T07:26:04.766Z,3.20
2023-03-05T07:28:31.799Z,3.30
2023-03-05T07:31:04.730Z,3.30
2023-03-05T08:07:59.279Z,4.10
2023-03-05T08:10:25.961Z,4.00
2023-03-05T08:12:52.645Z,4.00
2023-03-05T08:15:19.194Z,3.90
2023-03-05T08:17:45.812Z,4.00
2023-03-05T08:20:12.969Z,4.00
2023-03-05T08:22:39.621Z,4.00
2023-03-05T08:25:07.139Z,4.00
2023-03-05T08:27:33.756Z,4.10
2023-03-05T08:30:02.675Z,4.10
2023-03-05T08:32:29.553Z,4.20
2023-03-05T08:34:58.496Z,4.20
2023-03-05T08:37:25.523Z,4.20
2023-03-05T08:39:52.216Z,4.20
2023-03-05T08:42:18.808Z,4.30
2023-03-05T08:44:45.447Z,4.30
2023-03-05T08:47:12.011Z,4.40
2023-03-05T08:49:38.671Z,4.50
2023-03-05T19:21:25.028Z,3.20
2023-03-05T19:23:51.628Z,3.10
2023-03-05T19:26:18.238Z,3.00
2023-03-05T19:28:45.222Z,3.00
2023-03-05T19:31:13.812Z,3.00
2023-03-05T19:33:41.231Z,2.90
2023-03-05T19:36:10.095Z,2.90
2023-03-05T19:38:37.108Z,2.90
2023-03-05T19:41:04.468Z,2.90
2023-03-05T19:43:31.366Z,3.00
2023-03-05T19:46:02.768Z,3.00
2023-03-05T19:48:30.032Z,3.00
2023-03-05T19:50:57.200Z,3.00
2023-03-05T19:53:24.244Z,3.00
2023-03-05T19:55:50.903Z,2.90
2023-03-05T19:58:17.757Z,2.90
2023-03-05T20:00:44.522Z,2.90
2023-03-05T20:03:11.362Z,2.90
2023-03-05T20:05:38.058Z,2.90
2023-03-05T20:08:04.836Z,2.90
2023-03-05T20:10:31.601Z,2.90
2023-03-05T20:12:58.186Z,2.90
2023-03-05T20:15:29.131Z,2.90
2023-03-05T20:17:57.293Z,2.90
2023-03-05T20:20:24.477Z,2.90
2023-03-05T20:22:51.221Z,2.90
2023-03-05T20:25:21.018Z,2.80
2023-03-05T20:27:47.929Z,2.80
2023-03-05T20:30:15.709Z,2.90
2023-03-05T20:32:42.453Z,2.90
2023-03-05T20:35:13.401Z,2.90
2023-03-05T20:37:49.068Z,2.90
2023-03-05T20:40:16.715Z,2.90
2023-03-05T20:42:43.665Z,2.80
2023-03-05T20:45:10.658Z,2.80
2023-03-05T20:47:46.154Z,2.90
2023-03-05T20:50:14.806Z,2.80
2023-03-05T20:52:41.397Z,2.90
2023-03-05T20:55:09.098Z,2.90
2023-03-05T20:57:35.685Z,2.90
2023-03-05T21:00:03.488Z,2.90
2023-03-05T21:02:30.948Z,2.90
2023-03-05T21:04:57.515Z,2.90
2023-03-05T21:07:26.114Z,3.00
2023-03-05T21:09:52.676Z,2.90
2023-03-05T21:12:19.218Z,2.90
2023-03-05T21:14:45.797Z,3.00
2023-03-05T21:17:12.381Z,2.90
2023-03-05T21:19:39.294Z,2.90
2023-03-05T21:22:06.021Z,2.90
2023-03-05T21:24:43.365Z,2.90
2023-03-05T21:27:09.899Z,2.90
2023-03-05T21:29:36.443Z,2.90
2023-03-05T21:32:03.251Z,2.80
2023-03-05T21:34:29.935Z,3.00
2023-03-05T21:36:56.511Z,2.90
2023-03-05T21:39:23.052Z,2.90
2023-03-05T21:41:49.825Z,2.90
2023-03-05T21:44:17.663Z,2.90
2023-03-05T21:46:44.388Z,2.90
2023-03-05T21:49:11.169Z,2.90
2023-03-05T21:51:49.386Z,2.90
2023-03-05T21:54:15.927Z,2.90
2023-03-05T21:56:42.463Z,2.90
2023-03-05T21:59:09.112Z,2.90
2023-03-05T22:01:35.656Z,2.90
2023-03-05T22:04:02.275Z,2.90
2023-03-05T22:06:28.952Z,2.90
2023-03-05T22:08:56.051Z,2.90
2023-03-05T22:11:22.644Z,2.80
2023-03-05T22:13:49.292Z,2.90
2023-03-05T22:16:24.472Z,2.80
2023-03-05T22:18:51.599Z,2.90
2023-03-05T22:21:25.922Z,2.90
2023-03-05T22:23:54.238Z,2.90
2023-03-05T22:26:20.810Z,2.80
2023-03-05T22:28:47.412Z,2.80
2023-03-05T22:31:23.849Z,2.80
2023-03-05T22:33:50.907Z,2.80
2023-03-05T22:36:17.681Z,2.80
2023-03-05T22:38:44.978Z,2.80
2023-03-05T22:41:14.242Z,2.80
2023-03-05T22:43:41.196Z,2.80
2023-03-05T22:46:20.142Z,2.80
2023-03-05T22:48:47.149Z,2.80
2023-03-05T22:51:14.826Z,2.80
2023-03-05T22:53:42.005Z,2.80
2023-03-05T22:56:10.881Z,2.80
2023-03-05T22:58:37.620Z,2.80
2023-03-05T23:01:12.127Z,2.70
2023-03-05T23:03:39.225Z,2.70
2023-03-05T23:06:06.435Z,2.80
2023-03-05T23:08:33.061Z,2.70
2023-03-05T23:11:01.220Z,2.70
2023-03-05T23:13:27.872Z,2.70
2023-03-05T23:15:54.439Z,2.80
2023-03-05T23:18:21.057Z,2.80
2023-03-05T23:20:47.630Z,2.70
2023-03-05T23:23:14.264Z,2.80
2023-03-05T23:25:41.130Z,2.80
2023-03-05T23:28:07.715Z,2.80
2023-03-05T23:30:37.788Z,2.80
2023-03-05T23:33:21.940Z,2.80
2023-03-05T23:35:59.817Z,2.80
2023-03-05T23:38:29.078Z,2.70
2023-03-05T23:41:00.430Z,2.70
2023-03-05T23:43:27.418Z,2.70
2023-03-05T23:45:57.201Z,2.70
2023-03-05T23:48:25.858Z,2.70
2023-03-05T23:50:52.991Z,2.70
2023-03-05T23:53:22.281Z,2.70
2023-03-05T23:55:49.486Z,2.70
2023-03-05T23:58:16.905Z,2.70
